Time;durP1;ratioP1;P1;durP2;ratioP2;P2;SDS_P1;SDS_P2;PMS_P1;PMS_P2;Temp;Humidity;BMP_temperature;BMP_pressure;BME280_temperature;BME280_humidity;BME280_pressure;Samples;Min_cycle;Max_cycle;Signal;HPM_P1;HPM_P2
2023/10/14 06:33:11;;;;;;;16.48;12.00;;;;;;;;;;6271782;22;20556;-89
2023/10/14 06:35:42;;;;;;;21.00;13.00;;;;;;;;;;6249873;22;20019;-88
2023/10/14 06:38:09;;;;;;;17.73;12.82;;;;;;;;;;6250359;22;20322;-89
2023/10/14 06:40:42;;;;;;;19.90;12.88;;;;;;;;;;6277420;22;20116;-91
2023/10/14 06:43:12;;;;;;;20.48;13.02;;;;;;;;;;6251389;22;20337;-91
2023/10/14 06:45:38;;;;;;;21.13;14.57;;;;;;;;;;6251047;22;20011;-93
2023/10/14 06:48:09;;;;;;;19.50;13.50;;;;;;;;;;6278482;22;20004;-87
2023/10/14 06:50:37;;;;;;;21.35;14.13;;;;;;;;;;6277912;22;20045;-94
2023/10/14 06:53:07;;;;;;;17.98;12.15;;;;;;;;;;6278728;22;20000;-90
2023/10/14 06:55:39;;;;;;;19.98;13.40;;;;;;;;;;6278340;22;20001;-94
2023/10/14 06:58:09;;;;;;;20.38;12.68;;;;;;;;;;6277891;22;20008;-93
2023/10/14 07:00:41;;;;;;;20.15;13.75;;;;;;;;;;6250962;22;20131;-93
2023/10/14 07:03:15;;;;;;;18.20;12.10;;;;;;;;;;6277767;22;20019;-93
2023/10/14 07:05:48;;;;;;;17.88;12.32;;;;;;;;;;6250724;22;20377;-93
2023/10/14 07:08:14;;;;;;;17.02;12.45;;;;;;;;;;6277988;22;20010;-93
2023/10/14 07:10:40;;;;;;;19.63;13.77;;;;;;;;;;6250466;22;20307;-91
2023/10/14 07:13:06;;;;;;;17.75;12.25;;;;;;;;;;6250657;22;20137;-91
2023/10/14 07:15:36;;;;;;;20.52;13.32;;;;;;;;;;6250711;22;20035;-93
2023/10/14 07:18:02;;;;;;;19.42;13.75;;;;;;;;;;6251412;22;20003;-94
2023/10/14 07:20:31;;;;;;;20.05;12.98;;;;;;;;;;6277784;22;20000;-93
2023/10/14 07:23:01;;;;;;;15.25;11.43;;;;;;;;;;6277864;22;20334;-92
2023/10/14 07:25:32;;;;;;;18.00;12.63;;;;;;;;;;6277232;22;20431;-87
2023/10/14 07:27:59;;;;;;;14.70;10.98;;;;;;;;;;6277556;22;20002;-90
2023/10/14 07:30:27;;;;;;;17.63;12.20;;;;;;;;;;6250833;22;20365;-87
2023/10/14 07:32:54;;;;;;;16.23;12.25;;;;;;;;;;6250111;22;20015;-92
2023/10/14 07:35:21;;;;;;;19.75;12.15;;;;;;;;;;6250081;22;20010;-91
2023/10/14 07:37:48;;;;;;;21.92;13.00;;;;;;;;;;6250261;22;20027;-93
2023/10/14 07:40:24;;;;;;;18.92;12.20;;;;;;;;;;6276959;22;20076;-91
2023/10/14 07:42:54;;;;;;;16.58;12.50;;;;;;;;;;6249893;22;20015;-90
2023/10/14 07:45:46;;;;;;;16.63;12.13;;;;;;;;;;6277395;22;20004;-91
2023/10/14 07:48:17;;;;;;;16.70;12.10;;;;;;;;;;6277558;22;20072;-95
2023/10/14 07:50:46;;;;;;;17.02;11.85;;;;;;;;;;6255516;22;20011;-96
2023/10/14 07:53:14;;;;;;;20.48;12.50;;;;;;;;;;6278943;22;20075;-92
2023/10/14 07:55:51;;;;;;;16.13;11.47;;;;;;;;;;6280448;22;20000;-94
2023/10/14 07:58:25;;;;;;;18.02;13.98;;;;;;;;;;6255617;22;20487;-92
2023/10/14 08:00:53;;;;;;;19.20;12.88;;;;;;;;;;6278214;22;20014;-84
2023/10/14 08:03:23;;;;;;;17.98;11.45;;;;;;;;;;6280523;22;20411;-93
2023/10/14 08:05:52;;;;;;;19.92;13.10;;;;;;;;;;6281025;22;20007;-95
2023/10/14 08:08:21;;;;;;;18.02;13.07;;;;;;;;;;6257175;22;20008;-93
2023/10/14 08:10:49;;;;;;;19.00;11.95;;;;;;;;;;6279500;22;20007;-91
2023/10/14 08:13:20;;;;;;;17.23;12.57;;;;;;;;;;6279819;22;20011;-86
2023/10/14 08:15:50;;;;;;;18.55;12.18;;;;;;;;;;6253390;22;20339;-96
2023/10/14 08:18:25;;;;;;;14.73;11.15;;;;;;;;;;6280093;22;20445;-86
2023/10/14 10:46:41;;;;;;;13.27;10.25;;;;;;;;;;6244006;23;20128;-83
2023/10/14 10:49:10;;;;;;;14.15;10.20;;;;;;;;;;6220216;23;20443;-83
2023/10/14 10:51:41;;;;;;;14.63;8.77;;;;;;;;;;6247143;23;20011;-86
2023/10/14 10:54:10;;;;;;;15.05;10.05;;;;;;;;;;6216494;23;20316;-84
2023/10/14 10:56:35;;;;;;;16.88;10.45;;;;;;;;;;6216909;23;20009;-84
2023/10/14 10:59:10;;;;;;;18.27;12.60;;;;;;;;;;6216743;23;20446;-83
2023/10/14 11:01:36;;;;;;;23.48;15.02;;;;;;;;;;6216379;23;20060;-84
2023/10/14 11:04:08;;;;;;;19.00;13.88;;;;;;;;;;6216249;23;20001;-87
2023/10/14 11:06:38;;;;;;;20.77;12.75;;;;;;;;;;6216747;23;20332;-83
2023/10/14 11:09:07;;;;;;;18.23;12.68;;;;;;;;;;6189879;23;20009;-84
2023/10/14 11:11:34;;;;;;;18.25;13.13;;;;;;;;;;6216626;23;20009;-84
2023/10/14 11:14:00;;;;;;;17.67;12.65;;;;;;;;;;6216158;23;20035;-82
2023/10/14 11:16:28;;;;;;;18.88;13.70;;;;;;;;;;6216359;23;20008;-82
2023/10/14 11:18:54;;;;;;;18.10;13.05;;;;;;;;;;6189689;23;20012;-83
2023/10/14 11:21:21;;;;;;;20.48;13.38;;;;;;;;;;6216403;23;20004;-82
2023/10/14 11:23:47;;;;;;;20.08;12.65;;;;;;;;;;6216082;23;20011;-81
2023/10/14 11:26:16;;;;;;;18.42;13.15;;;;;;;;;;6216149;23;20008;-81
2023/10/14 11:28:45;;;;;;;15.05;11.35;;;;;;;;;;6216611;23;20320;-81
2023/10/14 11:31:14;;;;;;;17.13;12.38;;;;;;;;;;6216024;23;20055;-83
2023/10/14 11:33:44;;;;;;;21.17;12.90;;;;;;;;;;6216006;23;20031;-84
2023/10/14 11:36:19;;;;;;;16.20;11.80;;;;;;;;;;6189151;23;20021;-84
2023/10/14 11:38:48;;;;;;;15.38;11.52;;;;;;;;;;6216730;23;20036;-84
2023/10/14 11:41:15;;;;;;;18.60;11.90;;;;;;;;;;6191085;23;20385;-84
2023/10/14 11:43:46;;;;;;;16.88;11.52;;;;;;;;;;6218158;23;20001;-84
2023/10/14 11:46:12;;;;;;;21.08;11.75;;;;;;;;;;6217449;23;20008;-84
2023/10/14 11:48:38;;;;;;;17.95;12.10;;;;;;;;;;6217675;23;20424;-84
2023/10/14 11:51:12;;;;;;;14.95;10.75;;;;;;;;;;6217928;23;20004;-84
2023/10/14 11:53:44;;;;;;;18.25;11.88;;;;;;;;;;6217661;23;20411;-84
2023/10/14 11:56:13;;;;;;;15.20;11.75;;;;;;;;;;6217860;23;20005;-83
2023/10/14 11:58:42;;;;;;;19.10;12.25;;;;;;;;;;6217770;23;20000;-85
2023/10/14 12:01:11;;;;;;;18.15;12.10;;;;;;;;;;6191223;23;20005;-84
2023/10/14 12:03:37;;;;;;;;;;;;;;;;;;6218187;23;20000;-84
2023/10/14 12:06:03;;;;;;;14.98;11.85;;;;;;;;;;6217963;23;19915;-85
2023/10/14 12:08:39;;;;;;;15.27;11.32;;;;;;;;;;6217422;23;20005;-84
2023/10/14 12:11:08;;;;;;;12.15;9.52;;;;;;;;;;6217713;23;20015;-84
2023/10/14 12:13:33;;;;;;;17.95;10.77;;;;;;;;;;6191036;23;20071;-84
2023/10/14 12:16:04;;;;;;;17.48;12.85;;;;;;;;;;6218318;23;20412;-84
2023/10/14 12:18:30;;;;;;;19.48;13.55;;;;;;;;;;6190898;23;20007;-84
2023/10/14 12:20:56;;;;;;;16.58;12.65;;;;;;;;;;6217439;23;20005;-84
2023/10/14 12:23:22;;;;;;;14.50;11.18;;;;;;;;;;6217067;23;20082;-84
2023/10/14 12:25:50;;;;;;;17.73;11.93;;;;;;;;;;6217756;23;20000;-84
2023/10/14 12:28:26;;;;;;;14.37;11.10;;;;;;;;;;6217636;23;20055;-85
2023/10/14 12:31:03;;;;;;;16.60;12.13;;;;;;;;;;6217212;23;20008;-84
2023/10/14 12:33:35;;;;;;;15.27;10.82;;;;;;;;;;6217168;23;20067;-84
2023/10/14 12:36:09;;;;;;;14.02;10.75;;;;;;;;;;6191957;23;20372;-83
2023/10/14 12:38:36;;;;;;;16.92;11.30;;;;;;;;;;6217541;23;19996;-84
2023/10/14 12:41:02;;;;;;;16.95;11.32;;;;;;;;;;6217190;23;20001;-84
2023/10/14 12:43:32;;;;;;;14.82;11.32;;;;;;;;;;6217059;23;20461;-85
2023/10/14 12:48:43;;;;;;;15.95;11.52;;;;;;;;;;6219603;23;20428;-85
2023/10/14 12:51:14;;;;;;;17.58;11.02;;;;;;;;;;6217298;23;20028;-85
2023/10/14 12:53:46;;;;;;;14.20;10.57;;;;;;;;;;6217704;23;20063;-85
2023/10/14 12:56:17;;;;;;;18.58;11.45;;;;;;;;;;6217352;23;20027;-86
2023/10/14 12:58:44;;;;;;;16.10;11.38;;;;;;;;;;6217422;23;20007;-86
2023/10/14 13:01:16;;;;;;;17.27;11.85;;;;;;;;;;6217093;23;19996;-85
2023/10/14 13:03:52;;;;;;;15.52;11.07;;;;;;;;;;6217300;23;20079;-85
2023/10/14 13:06:22;;;;;;;14.63;11.15;;;;;;;;;;6217717;23;20001;-86
2023/10/14 13:09:01;;;;;;;17.30;12.20;;;;;;;;;;6217600;23;20003;-86
2023/10/14 13:11:31;;;;;;;16.63;11.93;;;;;;;;;;6190877;23;20432;-86
2023/10/14 13:14:00;;;;;;;14.50;10.10;;;;;;;;;;6217302;23;19996;-85
2023/10/14 13:16:26;;;;;;;18.50;12.70;;;;;;;;;;6217664;23;20001;-84
2023/10/14 13:18:56;;;;;;;14.02;11.25;;;;;;;;;;6217588;23;20001;-84
2023/10/14 13:21:28;;;;;;;15.48;10.70;;;;;;;;;;6217345;23;20031;-81
2023/10/14 13:23:55;;;;;;;15.57;11.60;;;;;;;;;;6217447;23;20001;-86
2023/10/14 13:26:20;;;;;;;17.38;11.25;;;;;;;;;;6217639;23;20331;-85
2023/10/14 13:28:47;;;;;;;14.65;10.80;;;;;;;;;;6217361;23;20005;-85
2023/10/14 13:31:15;;;;;;;15.02;12.18;;;;;;;;;;6217777;23;20004;-85
2023/10/14 13:33:47;;;;;;;15.00;11.02;;;;;;;;;;6217720;23;20025;-85
2023/10/14 13:36:21;;;;;;;15.77;10.50;;;;;;;;;;6217448;23;20031;-85
2023/10/14 13:38:47;;;;;;;17.83;11.68;;;;;;;;;;6217402;23;20424;-86
2023/10/14 13:41:14;;;;;;;16.90;11.85;;;;;;;;;;6217467;23;20036;-85
2023/10/14 13:43:50;;;;;;;19.90;12.00;;;;;;;;;;6217641;23;20035;-84
2023/10/14 13:46:17;;;;;;;16.35;11.52;;;;;;;;;;6217191;23;20092;-84
2023/10/14 13:48:43;;;;;;;14.43;10.70;;;;;;;;;;6217270;23;20375;-84
2023/10/14 23:03:15;;;;;;;11.55;8.88;;;;;;;;;;6220595;22;20104;-83
2023/10/14 23:05:42;;;;;;;12.93;8.65;;;;;;;;;;6277627;22;20015;-81
2023/10/14 23:08:12;;;;;;;11.52;8.52;;;;;;;;;;6277131;22;20004;-82
2023/10/14 23:10:38;;;;;;;13.80;8.63;;;;;;;;;;6277417;22;20430;-84
2023/10/14 23:13:07;;;;;;;10.30;8.07;;;;;;;;;;6277316;22;20050;-84
2023/10/14 23:15:32;;;;;;;11.60;8.60;;;;;;;;;;6277410;22;20000;-82
2023/10/14 23:17:59;;;;;;;11.73;8.95;;;;;;;;;;6249932;22;20066;-86
2023/10/14 23:20:26;;;;;;;12.73;8.50;;;;;;;;;;6277240;22;20031;-84
2023/10/14 23:22:53;;;;;;;10.27;7.97;;;;;;;;;;6276975;22;20008;-83
2023/10/14 23:25:18;;;;;;;11.52;8.25;;;;;;;;;;6277466;22;20031;-81
2023/10/14 23:27:45;;;;;;;13.98;8.98;;;;;;;;;;6276921;22;20318;-81
2023/10/14 23:30:18;;;;;;;11.90;8.68;;;;;;;;;;6277090;22;20027;-83
2023/10/14 23:32:45;;;;;;;11.18;8.70;;;;;;;;;;6276893;22;20011;-82
2023/10/14 23:35:18;;;;;;;11.23;8.35;;;;;;;;;;6278517;22;20015;-86
2023/10/14 23:37:54;;;;;;;11.00;9.07;;;;;;;;;;6279185;22;20011;-82
2023/10/14 23:40:22;;;;;;;13.23;8.50;;;;;;;;;;6279187;22;19999;-82
2023/10/14 23:42:49;;;;;;;9.43;8.35;;;;;;;;;;6278924;22;20091;-84
2023/10/14 23:45:15;;;;;;;9.80;8.80;;;;;;;;;;6279036;22;19995;-86
2023/10/14 23:47:45;;;;;;;11.38;9.10;;;;;;;;;;6279148;22;20034;-83
2023/10/14 23:50:14;;;;;;;11.20;8.80;;;;;;;;;;6279106;22;20053;-82
2023/10/14 23:52:48;;;;;;;13.13;8.80;;;;;;;;;;6278889;22;20012;-86
2023/10/14 23:55:14;;;;;;;12.43;9.30;;;;;;;;;;6251703;22;20373;-84
2023/10/14 23:57:40;;;;;;;11.93;9.27;;;;;;;;;;6279397;22;20000;-82
